Time;durP1;ratioP1;P1;durP2;ratioP2;P2;SDS_P1;SDS_P2;PMS_P1;PMS_P2;Temp;Humidity;BMP_temperature;BMP_pressure;BME280_temperature;BME280_humidity;BME280_pressure;Samples;Min_cycle;Max_cycle;Signal;HPM_P1;HPM_P2
2021/05/23 00:00:08;;;;;;;8.18;4.97;;;17.60;51.20;;;;;;5077533;28;20025;-66
2021/05/23 00:02:34;;;;;;;5.80;4.78;;;17.60;51.10;;;;;;5093998;28;20024;-66
2021/05/23 00:04:59;;;;;;;7.20;5.60;;;17.60;51.30;;;;;;5095355;28;20118;-66
2021/05/23 00:07:27;;;;;;;8.18;4.85;;;17.60;51.30;;;;;;5091524;28;20029;-66
2021/05/23 00:09:54;;;;;;;6.55;5.13;;;17.50;51.40;;;;;;5094945;28;20016;-66
2021/05/23 00:12:20;;;;;;;7.93;5.22;;;17.50;51.30;;;;;;5095296;28;20017;-66
2021/05/23 00:14:46;;;;;;;6.38;4.53;;;17.50;51.60;;;;;;5095114;28;20028;-66
2021/05/23 00:17:11;;;;;;;6.25;4.70;;;17.50;51.60;;;;;;5095133;28;20384;-66
2021/05/23 00:19:37;;;;;;;9.75;5.15;;;17.50;51.60;;;;;;5095067;28;20059;-66
2021/05/23 00:22:05;;;;;;;4.80;3.70;;;17.50;51.70;;;;;;5095022;28;20031;-66
2021/05/23 00:24:31;;;;;;;5.40;3.97;;;17.40;51.70;;;;;;5094905;28;20031;-66
2021/05/23 00:26:57;;;;;;;5.18;4.13;;;17.40;51.70;;;;;;5094946;28;20061;-66
2021/05/23 00:29:22;;;;;;;4.43;3.60;;;17.40;52.00;;;;;;5094534;28;20016;-66
2021/05/23 00:31:48;;;;;;;6.28;4.20;;;17.40;52.00;;;;;;5084367;28;20135;-66
2021/05/23 00:34:14;;;;;;;4.13;3.20;;;17.30;52.10;;;;;;5085711;28;20035;-66
2021/05/23 00:36:40;;;;;;;4.30;3.40;;;17.30;52.20;;;;;;5083140;28;20424;-66
2021/05/23 00:39:06;;;;;;;5.00;2.92;;;17.30;52.30;;;;;;5074407;28;20020;-66
2021/05/23 00:41:32;;;;;;;3.80;2.72;;;17.30;52.40;;;;;;5072777;28;20038;-66
2021/05/23 00:43:59;;;;;;;4.13;3.20;;;17.20;52.40;;;;;;5076217;28;20027;-66
2021/05/23 00:46:24;;;;;;;7.70;3.30;;;17.20;52.60;;;;;;5094546;28;20032;-66
2021/05/23 00:48:50;;;;;;;3.80;3.20;;;17.20;52.60;;;;;;5088240;28;20023;-66
2021/05/23 00:51:16;;;;;;;5.30;3.55;;;17.20;52.60;;;;;;5091347;28;20024;-66
2021/05/23 00:53:42;;;;;;;6.25;3.55;;;17.20;52.80;;;;;;5094229;28;20024;-66
2021/05/23 00:56:07;;;;;;;4.43;3.55;;;17.20;52.90;;;;;;5094349;28;20413;-66
2021/05/23 00:58:33;;;;;;;5.70;3.85;;;17.20;52.90;;;;;;5093326;28;20023;-66
2021/05/23 01:00:58;;;;;;;6.15;4.15;;;17.10;53.00;;;;;;5093761;28;20092;-66
2021/05/23 01:05:56;;;;;;;4.32;3.15;;;17.00;53.00;;;;;;5094185;28;20095;-66
2021/05/23 01:08:24;;;;;;;4.10;3.05;;;17.00;53.20;;;;;;5094026;28;20020;-66
2021/05/23 01:11:08;;;;;;;3.85;3.30;;;17.00;53.40;;;;;;5094052;28;20047;-66
2021/05/23 01:13:55;;;;;;;4.47;3.05;;;16.90;53.40;;;;;;5094023;28;20372;-66
2021/05/23 01:16:29;;;;;;;3.80;3.13;;;16.90;53.40;;;;;;5093985;28;20053;-66
2021/05/23 01:19:07;;;;;;;3.17;2.83;;;16.90;53.60;;;;;;5094033;28;20046;-66
2021/05/23 01:21:38;;;;;;;3.97;3.05;;;16.80;53.80;;;;;;5093937;28;20032;-66
2021/05/23 01:24:10;;;;;;;6.97;3.10;;;16.80;53.90;;;;;;5078448;28;20032;-66
2021/05/23 01:26:43;;;;;;;4.40;2.70;;;16.80;53.80;;;;;;5055608;28;20041;-66
2021/05/23 01:29:10;;;;;;;4.00;3.25;;;16.80;54.10;;;;;;5068027;28;20124;-66
2021/05/23 01:31:38;;;;;;;3.72;2.97;;;16.70;54.10;;;;;;5093522;28;20074;-66
2021/05/23 01:34:04;;;;;;;6.65;3.47;;;16.70;54.20;;;;;;5093619;28;20024;-66
2021/05/23 01:36:38;;;;;;;5.03;2.85;;;16.70;54.20;;;;;;5093749;28;20077;-66
2021/05/23 01:39:07;;;;;;;5.05;3.00;;;16.70;54.30;;;;;;5092521;28;20066;-66
2021/05/23 01:41:35;;;;;;;2.78;2.58;;;16.70;54.30;;;;;;5093559;28;20073;-66
2021/05/23 01:44:02;;;;;;;2.95;2.55;;;16.80;54.50;;;;;;5093374;28;20024;-66
2021/05/23 01:46:28;;;;;;;3.78;2.67;;;16.80;54.30;;;;;;5093582;28;20039;-66
2021/05/23 01:48:54;;;;;;;3.38;2.30;;;16.80;54.40;;;;;;5093366;28;20028;-66
2021/05/23 01:51:20;;;;;;;4.10;2.50;;;16.80;54.40;;;;;;5075428;28;20050;-66
2021/05/23 01:53:45;;;;;;;5.05;3.00;;;16.80;54.40;;;;;;5073114;28;20077;-66
2021/05/23 01:56:11;;;;;;;3.42;2.53;;;16.80;54.30;;;;;;5073072;28;20047;-66
2021/05/23 01:58:37;;;;;;;4.07;3.10;;;16.80;54.50;;;;;;5083394;28;20406;-66
2021/05/23 02:01:03;;;;;;;3.55;2.83;;;16.90;54.60;;;;;;5093312;28;20380;-66
2021/05/23 02:03:29;;;;;;;4.72;2.97;;;16.90;54.50;;;;;;5074952;28;20028;-66
2021/05/23 02:05:57;;;;;;;3.95;2.85;;;16.90;54.60;;;;;;5093216;28;20468;-66
2021/05/23 02:08:25;;;;;;;3.35;2.92;;;17.00;54.60;;;;;;5086666;28;20031;-66
2021/05/23 02:10:53;;;;;;;3.88;3.03;;;17.10;54.70;;;;;;5074651;28;20120;-66
2021/05/23 02:13:19;;;;;;;3.90;3.28;;;17.10;54.80;;;;;;5093069;28;20519;-66
2021/05/23 02:15:46;;;;;;;3.85;3.20;;;17.20;54.90;;;;;;5093088;28;20035;-66
2021/05/23 02:18:12;;;;;;;5.10;3.40;;;17.20;54.90;;;;;;5093085;28;20388;-66
2021/05/23 02:20:38;;;;;;;7.20;3.65;;;17.30;55.00;;;;;;5093025;28;20054;-66
2021/05/23 02:23:06;;;;;;;4.25;2.78;;;17.30;55.00;;;;;;5074936;28;20047;-66
2021/05/23 02:25:33;;;;;;;3.67;2.80;;;17.40;55.10;;;;;;5093029;28;20027;-66
2021/05/23 02:28:02;;;;;;;3.17;2.72;;;17.40;55.10;;;;;;5092456;28;20016;-66
2021/05/23 02:30:33;;;;;;;3.78;2.83;;;17.50;55.20;;;;;;5092665;28;20460;-66
2021/05/23 02:33:00;;;;;;;3.70;2.45;;;17.50;55.30;;;;;;5092786;28;20024;-66
2021/05/23 02:35:27;;;;;;;3.45;3.00;;;17.50;55.20;;;;;;5092925;28;20070;-66
2021/05/23 02:37:53;;;;;;;4.13;2.60;;;17.50;55.20;;;;;;5092881;28;20020;-66
2021/05/23 02:40:23;;;;;;;2.40;2.20;;;17.60;55.10;;;;;;5092827;28;20079;-66
2021/05/23 02:42:49;;;;;;;4.88;2.70;;;17.60;55.00;;;;;;5093021;28;20518;-66
2021/05/23 02:45:17;;;;;;;3.33;2.90;;;17.70;55.00;;;;;;5092663;28;20068;-66
2021/05/23 02:47:44;;;;;;;3.53;2.45;;;17.70;54.80;;;;;;5092765;28;20023;-66
2021/05/23 02:50:14;;;;;;;3.53;2.75;;;17.80;54.90;;;;;;5092637;28;20020;-66
2021/05/23 02:52:39;;;;;;;5.28;2.90;;;17.80;54.90;;;;;;5092728;28;20376;-66
2021/05/23 02:55:07;;;;;;;5.57;2.80;;;17.80;54.90;;;;;;5092706;28;20028;-66
2021/05/23 02:57:34;;;;;;;3.78;2.42;;;17.80;55.00;;;;;;5074317;28;20097;-66
2021/05/23 03:00:00;;;;;;;3.60;2.83;;;17.90;55.20;;;;;;5092684;28;20033;-66
2021/05/23 03:02:26;;;;;;;4.65;2.65;;;17.90;55.40;;;;;;5092589;28;20028;-66
2021/05/23 03:04:54;;;;;;;4.30;3.03;;;17.90;55.30;;;;;;5092665;28;20481;-66
2021/05/23 03:07:21;;;;;;;4.07;2.88;;;17.90;55.30;;;;;;5092354;28;20031;-66
2021/05/23 03:09:47;;;;;;;5.55;3.50;;;17.90;55.20;;;;;;5092617;28;20046;-66
2021/05/23 03:12:12;;;;;;;4.22;3.10;;;18.00;55.40;;;;;;5092542;28;20028;-66
2021/05/23 03:14:40;;;;;;;3.20;2.90;;;18.00;55.40;;;;;;5092418;28;20086;-66
2021/05/23 03:17:07;;;;;;;6.80;3.30;;;18.00;55.50;;;;;;5092702;28;20399;-66
2021/05/23 03:19:34;;;;;;;4.57;2.75;;;18.00;55.50;;;;;;5092518;28;20022;-66
2021/05/23 03:22:00;;;;;;;3.80;3.10;;;18.00;55.70;;;;;;5094253;28;20398;-66
2021/05/23 03:24:26;;;;;;;3.78;2.60;;;18.00;55.80;;;;;;5091465;28;20047;-66
2021/05/23 03:26:52;;;;;;;3.47;2.88;;;18.00;55.70;;;;;;5096075;28;20024;-66
2021/05/23 03:29:17;;;;;;;3.72;2.75;;;18.00;55.90;;;;;;5095628;28;20093;-66
2021/05/23 03:31:43;;;;;;;6.90;3.13;;;18.00;56.20;;;;;;5096009;28;20031;-66
2021/05/23 03:34:09;;;;;;;3.63;3.10;;;18.00;56.40;;;;;;5077701;28;20028;-66
2021/05/23 03:36:34;;;;;;;4.20;2.97;;;17.90;56.60;;;;;;5095823;28;20024;-66
2021/05/23 03:39:00;;;;;;;3.50;2.85;;;17.90;56.70;;;;;;5077885;28;20388;-66
2021/05/23 03:41:25;;;;;;;4.22;2.90;;;17.90;56.70;;;;;;5075481;28;20028;-66
2021/05/23 03:43:51;;;;;;;3.92;2.72;;;17.90;57.00;;;;;;5095705;28;20527;-66
2021/05/23 03:46:17;;;;;;;3.95;2.90;;;17.80;57.20;;;;;;5095660;28;20072;-66
2021/05/23 03:48:42;;;;;;;3.17;2.72;;;17.90;57.40;;;;;;5095694;28;20027;-66
2021/05/23 03:51:08;;;;;;;4.05;2.70;;;17.80;57.60;;;;;;5079258;28;20054;-66
2021/05/23 03:53:34;;;;;;;3.00;2.50;;;17.80;57.60;;;;;;5057462;28;20624;-66
2021/05/23 03:55:59;;;;;;;3.95;2.83;;;17.80;57.60;;;;;;5075286;28;20103;-66
2021/05/23 03:58:25;;;;;;;4.13;2.72;;;17.80;57.80;;;;;;5085643;28;20024;-66
2021/05/23 04:00:51;;;;;;;5.03;2.63;;;17.80;57.80;;;;;;5095548;28;20035;-66
2021/05/23 04:03:16;;;;;;;3.58;2.80;;;17.80;58.30;;;;;;5095324;28;20031;-66
2021/05/23 04:05:42;;;;;;;3.63;2.97;;;17.80;58.20;;;;;;5095115;28;20016;-66
2021/05/23 04:08:08;;;;;;;3.20;2.45;;;17.80;59.30;;;;;;5091285;28;20579;-66
2021/05/23 04:10:41;;;;;;;4.05;2.55;;;17.80;59.10;;;;;;5095408;28;20023;-66
2021/05/23 04:13:09;;;;;;;7.00;3.17;;;17.80;59.60;;;;;;5095325;28;20024;-66
2021/05/23 04:15:35;;;;;;;3.72;3.17;;;17.80;59.80;;;;;;5076988;28;20030;-66
2021/05/23 04:18:00;;;;;;;3.97;3.40;;;17.80;60.00;;;;;;5095115;28;20028;-66
2021/05/23 04:20:27;;;;;;;4.55;3.05;;;17.80;60.30;;;;;;5095060;28;20490;-66
2021/05/23 04:22:54;;;;;;;3.70;2.92;;;17.80;60.50;;;;;;5076797;28;20067;-66
2021/05/23 04:25:21;;;;;;;4.88;3.35;;;17.80;60.60;;;;;;5095223;28;20467;-66
2021/05/23 04:27:49;;;;;;;5.43;3.05;;;17.90;61.50;;;;;;5094583;28;20477;-66
2021/05/23 04:30:18;;;;;;;3.35;2.72;;;17.90;61.00;;;;;;5094505;28;20426;-66
2021/05/23 04:32:44;;;;;;;5.65;2.92;;;18.00;61.10;;;;;;5092994;28;20100;-66
2021/05/23 04:35:10;;;;;;;3.88;2.95;;;18.20;60.80;;;;;;5092688;28;20143;-66
2021/05/23 04:37:37;;;;;;;4.22;3.40;;;18.20;60.70;;;;;;5085990;28;20067;-66
2021/05/23 04:40:04;;;;;;;5.38;3.25;;;18.30;60.60;;;;;;5092749;28;20063;-66
2021/05/23 04:42:30;;;;;;;5.43;3.65;;;18.30;60.90;;;;;;5093702;28;20050;-66
2021/05/23 04:44:55;;;;;;;4.72;3.60;;;18.40;60.80;;;;;;5094302;28;20084;-66
2021/05/23 04:47:21;;;;;;;4.28;3.20;;;18.50;60.50;;;;;;5094617;28;20542;-66
2021/05/23 04:49:47;;;;;;;4.40;3.33;;;18.60;60.50;;;;;;5071320;28;20044;-66
2021/05/23 04:52:13;;;;;;;3.95;2.70;;;18.80;60.40;;;;;;5074190;28;20021;-66
2021/05/23 04:54:40;;;;;;;4.45;2.85;;;19.00;60.30;;;;;;5074161;28;20035;-66
2021/05/23 04:57:07;;;;;;;4.30;2.60;;;19.40;59.80;;;;;;5055946;28;20111;-67
2021/05/23 04:59:34;;;;;;;2.63;2.42;;;19.70;59.40;;;;;;5092839;28;20069;-67
2021/05/23 05:01:59;;;;;;;3.53;2.60;;;20.00;58.80;;;;;;5094263;28;20028;-67
2021/05/23 05:04:26;;;;;;;4.93;2.88;;;20.10;58.40;;;;;;5094091;28;20039;-67
2021/05/23 05:06:51;;;;;;;4.07;2.88;;;20.20;58.10;;;;;;5076199;28;20028;-67
2021/05/23 05:09:17;;;;;;;3.92;2.58;;;20.40;58.00;;;;;;5094094;28;20016;-67
2021/05/23 05:11:43;;;;;;;3.95;2.97;;;20.50;57.90;;;;;;5094118;28;20579;-67
2021/05/23 05:14:10;;;;;;;3.42;2.80;;;20.60;57.80;;;;;;5094003;28;20024;-67
2021/05/23 05:16:37;;;;;;;5.20;2.97;;;20.70;57.30;;;;;;5094058;28;20028;-67
2021/05/23 05:19:03;;;;;;;5.60;3.03;;;20.90;57.30;;;;;;5093986;28;20024;-67
2021/05/23 05:21:29;;;;;;;3.53;3.00;;;21.20;56.90;;;;;;5093919;28;20525;-67
2021/05/23 05:23:55;;;;;;;5.13;3.13;;;21.50;56.60;;;;;;5091639;28;20050;-67
2021/05/23 05:26:21;;;;;;;2.97;2.63;;;21.70;56.20;;;;;;5074417;28;20028;-67
2021/05/23 05:28:46;;;;;;;3.60;2.95;;;21.90;55.70;;;;;;5070749;28;20056;-67
2021/05/23 05:31:12;;;;;;;5.35;3.40;;;22.00;55.60;;;;;;5093677;28;20016;-67
2021/05/23 05:33:38;;;;;;;5.43;3.10;;;22.00;55.70;;;;;;5075435;28;20035;-67
2021/05/23 05:36:05;;;;;;;5.43;3.08;;;22.00;55.60;;;;;;5093384;28;20032;-67
2021/05/23 05:38:30;;;;;;;3.88;2.80;;;22.00;55.60;;;;;;5075444;28;20682;-67
2021/05/23 05:40:56;;;;;;;4.82;2.90;;;22.00;55.60;;;;;;5073666;28;20063;-67
2021/05/23 05:43:23;;;;;;;3.13;2.78;;;22.00;55.50;;;;;;5091220;28;20140;-67
2021/05/23 05:45:48;;;;;;;4.28;2.50;;;22.00;55.40;;;;;;5091593;28;20128;-67
2021/05/23 05:48:14;;;;;;;3.75;3.00;;;22.00;55.50;;;;;;5093325;28;20344;-67
2021/05/23 05:50:40;;;;;;;3.20;2.38;;;21.90;55.40;;;;;;5093347;28;20024;-67
2021/05/23 05:53:06;;;;;;;2.90;2.40;;;21.90;55.50;;;;;;5093462;28;20024;-67
2021/05/23 05:55:32;;;;;;;4.28;2.80;;;21.90;56.00;;;;;;5093323;28;20047;-67
2021/05/23 05:57:57;;;;;;;3.55;2.70;;;21.90;56.00;;;;;;5092930;28;20035;-67
2021/05/23 06:00:23;;;;;;;3.15;2.85;;;21.90;56.00;;;;;;5074799;28;20035;-67
2021/05/23 06:02:48;;;;;;;4.43;2.60;;;21.90;56.10;;;;;;5093111;28;20107;-67
2021/05/23 06:05:14;;;;;;;3.00;2.70;;;21.90;56.30;;;;;;5092602;28;20023;-67
2021/05/23 06:07:42;;;;;;;3.00;2.80;;;21.80;56.30;;;;;;5092198;28;20081;-67
2021/05/23 06:10:08;;;;;;;2.72;2.38;;;21.80;56.40;;;;;;5093033;28;20031;-67
2021/05/23 06:12:33;;;;;;;3.85;2.80;;;21.80;56.50;;;;;;5075051;28;20503;-67
2021/05/23 06:14:59;;;;;;;2.33;2.13;;;21.90;57.00;;;;;;5093026;28;20024;-67
2021/05/23 06:17:25;;;;;;;2.95;2.42;;;21.90;57.20;;;;;;5092978;28;20024;-67
2021/05/23 06:19:50;;;;;;;4.80;3.00;;;22.00;57.10;;;;;;5074786;28;20077;-67
2021/05/23 06:22:16;;;;;;;2.60;2.38;;;22.10;56.90;;;;;;5092910;28;20414;-67
2021/05/23 06:24:42;;;;;;;3.00;2.80;;;22.20;56.60;;;;;;5092803;28;20024;-67
2021/05/23 06:27:07;;;;;;;6.05;3.00;;;22.30;56.70;;;;;;5092435;28;20464;-67
2021/05/23 06:29:33;;;;;;;5.30;3.75;;;22.30;56.80;;;;;;5074512;28;20111;-67
2021/05/23 06:31:59;;;;;;;4.38;3.25;;;22.30;56.90;;;;;;5086010;28;20019;-67
2021/05/23 06:34:25;;;;;;;3.83;3.00;;;22.40;57.10;;;;;;5088577;28;20431;-67
2021/05/23 06:36:51;;;;;;;4.07;3.20;;;22.40;57.30;;;;;;5091135;28;20016;-67
2021/05/23 06:39:17;;;;;;;3.83;3.30;;;22.30;57.40;;;;;;5092298;28;20021;-67
2021/05/23 06:41:43;;;;;;;5.07;3.22;;;22.40;57.20;;;;;;5088432;28;20047;-67
2021/05/23 06:44:09;;;;;;;5.30;3.42;;;22.30;57.40;;;;;;5092158;28;20020;-67
2021/05/23 06:46:34;;;;;;;3.72;3.30;;;22.30;57.10;;;;;;5073949;28;20137;-67
2021/05/23 06:49:00;;;;;;;5.03;3.30;;;22.30;57.20;;;;;;5085953;28;20025;-67
2021/05/23 06:51:26;;;;;;;5.15;3.40;;;22.30;57.00;;;;;;5088970;28;20020;-67
2021/05/23 06:53:52;;;;;;;4.22;2.83;;;22.20;56.90;;;;;;5092247;28;20017;-67
2021/05/23 06:56:17;;;;;;;3.33;2.90;;;22.20;57.40;;;;;;5091622;28;20035;-67
2021/05/23 06:58:43;;;;;;;4.45;2.80;;;22.20;57.70;;;;;;5095556;28;20080;-67
2021/05/23 07:01:09;;;;;;;3.08;2.78;;;22.20;57.50;;;;;;5094406;28;20035;-67
2021/05/23 07:03:35;;;;;;;3.30;2.80;;;22.20;57.70;;;;;;5088651;28;20111;-67
2021/05/23 07:06:01;;;;;;;3.45;2.83;;;22.20;57.60;;;;;;5095952;28;20482;-67
2021/05/23 07:08:27;;;;;;;3.03;2.67;;;22.20;57.80;;;;;;5091929;28;20464;-67
2021/05/23 07:10:52;;;;;;;5.72;2.80;;;22.20;58.00;;;;;;5096212;28;20019;-67
2021/05/23 07:13:18;;;;;;;4.07;3.08;;;22.20;57.90;;;;;;5095955;28;20020;-67
2021/05/23 07:15:44;;;;;;;3.30;2.58;;;22.20;57.90;;;;;;5095659;28;20028;-67
2021/05/23 07:18:09;;;;;;;3.83;3.10;;;22.20;58.10;;;;;;5095789;28;20042;-67
2021/05/23 07:20:35;;;;;;;3.90;3.03;;;22.20;58.00;;;;;;5095743;28;20022;-67
2021/05/23 07:23:01;;;;;;;4.47;3.58;;;22.20;58.30;;;;;;5095627;28;20472;-67
2021/05/23 07:25:27;;;;;;;5.63;3.20;;;22.20;58.40;;;;;;5074975;28;20414;-67
2021/05/23 07:27:53;;;;;;;3.70;3.10;;;22.20;58.20;;;;;;5095689;28;20020;-67
2021/05/23 07:30:19;;;;;;;4.45;2.97;;;22.20;58.40;;;;;;5094847;28;20020;-67
2021/05/23 07:32:44;;;;;;;5.45;3.38;;;22.20;58.90;;;;;;5095421;28;20039;-67
2021/05/23 07:35:10;;;;;;;3.30;2.97;;;22.20;58.80;;;;;;5094338;28;20368;-67
2021/05/23 07:37:36;;;;;;;3.50;3.20;;;22.30;58.80;;;;;;5095691;28;20039;-67
2021/05/23 07:40:03;;;;;;;3.35;2.70;;;22.40;58.90;;;;;;5095710;28;20024;-67
2021/05/23 07:42:29;;;;;;;5.32;3.30;;;22.50;59.00;;;;;;5096039;28;20111;-67
2021/05/23 07:44:55;;;;;;;5.22;2.70;;;22.50;58.80;;;;;;5095536;28;20546;-67
2021/05/23 07:47:21;;;;;;;3.60;3.03;;;22.60;59.00;;;;;;5092365;28;20043;-67
2021/05/23 07:49:46;;;;;;;3.17;2.88;;;22.70;58.70;;;;;;5095179;28;20103;-67
2021/05/23 07:52:12;;;;;;;4.75;3.53;;;22.80;58.70;;;;;;5093530;28;20024;-67
2021/05/23 07:54:40;;;;;;;4.30;3.28;;;22.90;58.10;;;;;;5096137;28;20027;-67
2021/05/23 07:57:07;;;;;;;4.07;3.20;;;23.00;57.80;;;;;;5095371;28;20020;-67
2021/05/23 07:59:33;;;;;;;3.10;2.80;;;23.00;58.30;;;;;;5095347;28;20028;-67
2021/05/23 08:01:59;;;;;;;4.18;3.03;;;23.00;58.00;;;;;;5095402;28;20028;-67
2021/05/23 08:04:25;;;;;;;2.63;2.42;;;23.00;58.00;;;;;;5094995;28;20057;-67
2021/05/23 08:06:50;;;;;;;3.08;2.83;;;23.10;58.40;;;;;;5094496;28;20028;-67
2021/05/23 08:09:16;;;;;;;3.40;3.10;;;23.00;57.80;;;;;;5095009;28;20024;-67
2021/05/23 08:11:42;;;;;;;3.25;2.70;;;23.00;58.00;;;;;;5094524;28;20020;-67
2021/05/23 08:14:09;;;;;;;4.35;2.92;;;23.00;58.20;;;;;;5086213;28;20028;-67
2021/05/23 08:16:35;;;;;;;3.80;2.85;;;22.90;58.70;;;;;;5071713;28;20032;-67
2021/05/23 08:19:01;;;;;;;5.18;3.08;;;22.80;59.30;;;;;;5093060;28;20020;-67
2021/05/23 08:21:27;;;;;;;3.20;2.90;;;22.70;59.50;;;;;;5094682;28;20476;-67
2021/05/23 08:23:56;;;;;;;3.42;3.00;;;22.70;59.80;;;;;;5094346;28;20058;-68
2021/05/23 08:26:22;;;;;;;2.92;2.70;;;22.60;59.80;;;;;;5084866;28;20028;-68
2021/05/23 08:28:47;;;;;;;3.67;2.90;;;22.60;60.00;;;;;;5080103;28;20028;-68
2021/05/23 08:31:13;;;;;;;3.60;2.60;;;22.50;60.10;;;;;;5090502;28;20071;-67
2021/05/23 08:33:39;;;;;;;3.78;2.75;;;22.50;60.10;;;;;;5086221;28;20069;-67
2021/05/23 08:36:05;;;;;;;3.72;3.03;;;22.40;60.20;;;;;;5074565;28;20020;-67
2021/05/23 08:38:31;;;;;;;3.05;2.75;;;22.40;60.40;;;;;;5094481;28;20036;-67
2021/05/23 08:40:57;;;;;;;3.38;2.97;;;22.40;60.70;;;;;;5091554;28;20074;-67
2021/05/23 08:43:26;;;;;;;4.57;3.50;;;22.30;60.70;;;;;;5088597;28;20028;-68
2021/05/23 08:45:51;;;;;;;3.50;3.20;;;22.20;61.00;;;;;;5091501;28;20032;-67
2021/05/23 08:48:19;;;;;;;3.75;3.00;;;22.20;61.10;;;;;;5091974;28;20030;-67
2021/05/23 08:50:47;;;;;;;4.72;4.05;;;22.10;61.20;;;;;;5091724;28;20034;-67
2021/05/23 08:53:12;;;;;;;7.28;4.45;;;22.10;61.40;;;;;;5073478;28;20072;-67
2021/05/23 08:55:39;;;;;;;9.07;6.90;;;22.00;61.50;;;;;;5092326;28;20455;-67
2021/05/23 08:58:05;;;;;;;5.43;4.32;;;22.00;61.70;;;;;;5080054;28;20020;-67
2021/05/23 09:00:31;;;;;;;9.25;7.20;;;21.90;61.70;;;;;;5088610;28;20028;-68
2021/05/23 09:03:06;;;;;;;8.88;7.20;;;21.90;61.60;;;;;;5073397;28;20392;-67
2021/05/23 09:05:42;;;;;;;5.63;4.00;;;21.90;61.70;;;;;;5091576;28;20023;-67
2021/05/23 09:08:13;;;;;;;3.35;2.88;;;21.90;61.50;;;;;;5087781;28;20028;-67
2021/05/23 09:10:39;;;;;;;3.00;2.60;;;21.80;61.60;;;;;;5093542;28;20016;-67
2021/05/23 09:13:05;;;;;;;2.50;2.30;;;21.80;61.60;;;;;;5093412;28;20103;-67
2021/05/23 09:15:31;;;;;;;2.92;2.60;;;21.80;61.90;;;;;;5087669;28;20024;-67
2021/05/23 09:18:01;;;;;;;3.70;2.72;;;21.70;62.00;;;;;;5092858;28;20031;-67
2021/05/23 09:20:27;;;;;;;2.85;2.50;;;21.70;62.10;;;;;;5090874;28;20028;-67
2021/05/23 09:22:54;;;;;;;4.03;2.90;;;21.60;62.40;;;;;;5074255;28;20085;-67
2021/05/23 09:25:35;;;;;;;2.78;2.55;;;21.50;62.30;;;;;;5084887;28;20153;-67
2021/05/23 09:28:00;;;;;;;;;;;21.50;62.40;;;;;;5089532;28;20016;-67
2021/05/23 09:30:29;;;;;;;2.47;2.28;;;21.40;62.90;;;;;;5091086;28;20284;-67
2021/05/23 09:32:57;;;;;;;3.42;2.58;;;21.40;63.00;;;;;;5086888;28;20028;-67
2021/05/23 09:35:27;;;;;;;8.13;2.95;;;21.40;62.70;;;;;;5093321;28;20028;-67
2021/05/23 09:38:14;;;;;;;2.40;2.20;;;21.30;62.10;;;;;;5091881;28;20028;-67
2021/05/23 09:40:43;;;;;;;3.33;2.13;;;21.30;62.30;;;;;;5089714;28;20480;-67
2021/05/23 09:43:16;;;;;;;2.22;2.08;;;21.20;61.60;;;;;;5093142;28;20101;-67
2021/05/23 09:45:44;;;;;;;2.17;2.00;;;21.20;61.70;;;;;;5084755;28;20047;-67
2021/05/23 09:48:24;;;;;;;2.28;2.13;;;21.20;61.80;;;;;;5064155;28;20495;-67
2021/05/23 09:50:56;;;;;;;4.57;2.50;;;21.20;61.70;;;;;;5087616;28;20479;-67
2021/05/23 09:53:33;;;;;;;2.55;2.35;;;21.20;61.50;;;;;;5090441;28;20035;-67
2021/05/23 09:56:03;;;;;;;2.60;2.40;;;21.20;61.60;;;;;;5088433;28;20035;-67
2021/05/23 09:58:33;;;;;;;2.60;2.40;;;21.10;62.00;;;;;;5091372;28;20111;-67
2021/05/23 10:00:59;;;;;;;5.68;2.10;;;21.10;62.40;;;;;;5085718;28;20115;-67
2021/05/23 10:03:27;;;;;;;3.10;2.00;;;21.10;62.90;;;;;;5084996;28;20115;-67
2021/05/23 10:05:54;;;;;;;2.20;2.10;;;21.10;62.20;;;;;;5092108;28;20068;-67
2021/05/23 10:08:20;;;;;;;2.28;2.03;;;21.10;61.20;;;;;;5063594;28;20426;-67
2021/05/23 10:10:49;;;;;;;2.70;2.05;;;21.10;60.80;;;;;;5086934;28;20012;-67
2021/05/23 10:13:16;;;;;;;2.33;1.80;;;21.10;61.10;;;;;;5087637;28;20460;-67
2021/05/23 10:15:42;;;;;;;2.00;1.85;;;21.10;61.30;;;;;;5089672;28;20478;-67
2021/05/23 10:18:08;;;;;;;2.50;2.00;;;21.10;61.10;;;;;;5087420;28;20016;-67
2021/05/23 10:20:34;;;;;;;1.85;1.75;;;21.10;61.00;;;;;;5087538;28;20062;-67
2021/05/23 10:23:11;;;;;;;3.30;1.77;;;21.10;61.10;;;;;;5088334;28;20034;-67
2021/05/23 10:25:45;;;;;;;2.78;1.70;;;21.10;60.00;;;;;;5085074;28;20098;-67
2021/05/23 10:28:11;;;;;;;2.15;1.98;;;21.10;60.20;;;;;;5088829;28;20363;-67
2021/05/23 10:30:52;;;;;;;1.67;1.58;;;21.10;60.10;;;;;;5093231;28;20449;-67
2021/05/23 10:33:20;;;;;;;1.95;1.70;;;21.10;60.20;;;;;;5091107;28;20472;-67
2021/05/23 10:35:47;;;;;;;1.60;1.50;;;21.00;60.10;;;;;;5094132;28;20028;-67
2021/05/23 10:38:20;;;;;;;1.60;1.50;;;21.00;59.50;;;;;;5077099;28;20032;-67
2021/05/23 10:40:55;;;;;;;3.05;1.88;;;21.10;58.80;;;;;;5091739;28;20024;-67
2021/05/23 10:43:31;;;;;;;1.80;1.70;;;21.10;58.50;;;;;;5091155;28;20051;-67
2021/05/23 10:46:05;;;;;;;1.80;1.70;;;21.10;58.70;;;;;;5083769;28;20476;-67
2021/05/23 10:48:31;;;;;;;2.75;1.50;;;21.10;59.40;;;;;;5083495;28;20541;-67
2021/05/23 10:50:57;;;;;;;1.83;1.73;;;21.10;59.30;;;;;;5081877;28;20032;-67
2021/05/23 10:53:33;;;;;;;2.40;1.83;;;21.10;58.80;;;;;;5087974;28;20411;-67
2021/05/23 10:55:59;;;;;;;1.70;1.60;;;21.20;58.50;;;;;;5090585;28;20463;-67
2021/05/23 10:58:26;;;;;;;2.40;1.58;;;21.10;57.40;;;;;;5083638;28;20030;-67
2021/05/23 11:00:54;;;;;;;1.95;1.55;;;21.10;56.70;;;;;;5088217;28;20028;-67
2021/05/23 11:03:23;;;;;;;1.77;1.67;;;21.10;56.50;;;;;;5068987;28;20056;-67
2021/05/23 11:06:03;;;;;;;2.25;1.70;;;21.10;55.90;;;;;;5087987;28;20044;-67
2021/05/23 11:08:30;;;;;;;1.63;1.40;;;21.20;55.90;;;;;;5092566;28;20021;-67
2021/05/23 11:10:56;;;;;;;2.35;1.60;;;21.20;56.40;;;;;;5096135;28;20421;-67
2021/05/23 11:13:29;;;;;;;3.60;1.63;;;21.20;56.50;;;;;;5094518;28;20059;-67
2021/05/23 11:16:07;;;;;;;1.85;1.75;;;21.20;56.80;;;;;;5092454;28;20024;-67
2021/05/23 11:18:32;;;;;;;2.08;1.85;;;21.20;56.80;;;;;;5093750;28;20065;-67
2021/05/23 11:20:59;;;;;;;2.58;1.70;;;21.20;57.30;;;;;;5096376;28;20073;-67
2021/05/23 11:23:26;;;;;;;1.95;1.67;;;21.20;57.10;;;;;;5078291;28;20085;-67
2021/05/23 11:26:06;;;;;;;1.70;1.60;;;21.20;56.50;;;;;;5096349;28;20333;-67
2021/05/23 11:28:32;;;;;;;1.50;1.40;;;21.20;56.40;;;;;;5089535;28;20035;-67
2021/05/23 11:30:58;;;;;;;1.48;1.38;;;21.20;56.50;;;;;;5088376;28;20021;-67
2021/05/23 11:33:24;;;;;;;1.40;1.40;;;21.10;57.00;;;;;;5088877;28;20081;-67
2021/05/23 11:35:52;;;;;;;1.33;1.23;;;21.10;57.20;;;;;;5094486;28;20028;-67
2021/05/23 11:38:18;;;;;;;1.60;1.50;;;21.10;56.90;;;;;;5089382;28;20025;-67
2021/05/23 11:40:45;;;;;;;1.60;1.50;;;21.20;56.50;;;;;;5090392;28;20043;-67
2021/05/23 11:43:21;;;;;;;1.30;1.20;;;21.10;56.10;;;;;;5085330;28;20028;-67
2021/05/23 11:45:57;;;;;;;1.90;1.70;;;21.10;55.80;;;;;;5090082;28;20036;-67
2021/05/23 11:48:32;;;;;;;2.75;1.30;;;21.10;56.30;;;;;;5092623;28;20031;-67
2021/05/23 11:50:58;;;;;;;2.38;1.70;;;21.10;55.30;;;;;;5071012;28;20023;-67
2021/05/23 11:53:35;;;;;;;1.40;1.30;;;21.10;55.20;;;;;;5092788;28;20055;-67
2021/05/23 11:56:00;;;;;;;1.70;1.60;;;21.10;55.50;;;;;;5094223;28;20020;-67
2021/05/23 11:58:26;;;;;;;1.60;1.50;;;21.10;55.70;;;;;;5071136;28;20126;-67
2021/05/23 12:00:52;;;;;;;1.73;1.52;;;21.10;55.80;;;;;;5089853;28;20052;-67
2021/05/23 12:03:18;;;;;;;1.55;1.45;;;21.10;55.60;;;;;;5086679;28;20035;-67
2021/05/23 12:05:45;;;;;;;1.52;1.35;;;21.10;55.30;;;;;;5094763;28;20027;-67
2021/05/23 12:08:22;;;;;;;1.33;1.23;;;21.10;55.10;;;;;;5090429;28;20437;-67
2021/05/23 12:11:07;;;;;;;1.80;1.10;;;21.10;55.10;;;;;;5092916;28;20042;-67
2021/05/23 12:13:44;;;;;;;1.30;1.27;;;21.10;55.20;;;;;;5086604;28;20020;-66
2021/05/23 12:16:12;;;;;;;1.55;1.45;;;21.10;55.60;;;;;;5094323;28;20032;-66
2021/05/23 12:18:41;;;;;;;1.55;1.45;;;21.10;54.60;;;;;;5092591;28;21824;-67
2021/05/23 12:21:10;;;;;;;2.50;1.50;;;21.10;54.70;;;;;;5092857;28;20020;-66
2021/05/23 12:23:37;;;;;;;1.98;1.40;;;21.10;54.60;;;;;;5085162;28;20039;-67
2021/05/23 12:26:08;;;;;;;1.88;1.60;;;21.10;53.90;;;;;;5087018;28;20096;-67
2021/05/23 12:28:40;;;;;;;2.53;1.60;;;21.10;53.80;;;;;;5090756;28;20043;-67
2021/05/23 12:31:07;;;;;;;1.42;1.33;;;21.10;54.10;;;;;;5087590;28;20016;-66
2021/05/23 12:33:33;;;;;;;2.53;1.60;;;21.10;54.60;;;;;;5092764;28;20357;-66
2021/05/23 12:36:13;;;;;;;1.38;1.35;;;21.10;54.70;;;;;;5089850;28;20024;-67
2021/05/23 12:39:13;;;;;;;1.65;1.50;;;21.10;54.20;;;;;;5093971;28;20020;-67
2021/05/23 12:41:47;;;;;;;2.65;1.40;;;21.20;54.60;;;;;;5073476;28;20028;-66
2021/05/23 12:44:16;;;;;;;2.35;1.90;;;21.10;54.20;;;;;;5093136;28;20115;-66
2021/05/23 12:46:42;;;;;;;3.00;1.48;;;21.10;53.70;;;;;;5092209;28;20447;-67
2021/05/23 12:49:22;;;;;;;1.50;1.40;;;21.10;53.00;;;;;;5084668;28;20031;-67
2021/05/23 12:51:49;;;;;;;1.63;1.50;;;21.10;52.60;;;;;;5090703;28;20095;-66